Time;durP1;ratioP1;P1;durP2;ratioP2;P2;SDS_P1;SDS_P2;PMS_P1;PMS_P2;Temp;Humidity;BMP_temperature;BMP_pressure;BME280_temperature;BME280_humidity;BME280_pressure;Samples;Min_cycle;Max_cycle;Signal;HPM_P1;HPM_P2
2023/08/08 00:01:10;;;;;;;6.03;2.17;;;;;;;;;;4946847;28;20330;-68
2023/08/08 00:03:35;;;;;;;12.65;2.33;;;;;;;;;;4950278;28;20577;-68
2023/08/08 00:06:01;;;;;;;9.13;2.42;;;;;;;;;;4950212;28;20323;-68
2023/08/08 00:08:26;;;;;;;7.18;2.83;;;;;;;;;;4951528;28;20188;-68
2023/08/08 00:10:51;;;;;;;6.93;2.75;;;;;;;;;;4947043;28;20845;-67
2023/08/08 00:13:16;;;;;;;11.25;3.75;;;;;;;;;;4950711;28;20244;-69
2023/08/08 00:15:42;;;;;;;10.02;2.50;;;;;;;;;;4950014;28;21070;-69
2023/08/08 00:18:07;;;;;;;5.57;2.25;;;;;;;;;;4950187;28;20177;-68
2023/08/08 00:20:32;;;;;;;7.70;3.08;;;;;;;;;;4947920;28;21000;-68
2023/08/08 00:22:57;;;;;;;8.45;2.95;;;;;;;;;;4950518;28;20596;-70
2023/08/08 00:25:22;;;;;;;9.30;3.03;;;;;;;;;;4948390;28;20220;-68
2023/08/08 00:27:49;;;;;;;5.55;2.35;;;;;;;;;;4951806;28;20283;-68
2023/08/08 00:30:14;;;;;;;8.40;2.88;;;;;;;;;;4947290;28;20189;-69
2023/08/08 00:32:40;;;;;;;8.18;2.22;;;;;;;;;;4949410;28;20922;-68
2023/08/08 00:35:05;;;;;;;8.57;2.28;;;;;;;;;;4949389;28;20595;-68
2023/08/08 00:37:30;;;;;;;13.40;3.22;;;;;;;;;;4947904;28;20196;-68
2023/08/08 00:39:55;;;;;;;11.10;2.92;;;;;;;;;;4948734;28;20554;-68
2023/08/08 00:42:21;;;;;;;6.55;4.05;;;;;;;;;;4948869;28;20200;-68
2023/08/08 00:44:46;;;;;;;8.27;3.13;;;;;;;;;;4948047;28;20620;-68
2023/08/08 00:47:11;;;;;;;8.15;2.17;;;;;;;;;;4951150;28;21964;-68
2023/08/08 00:49:37;;;;;;;13.40;2.65;;;;;;;;;;4950767;28;20184;-69
2023/08/08 00:52:02;;;;;;;8.95;2.63;;;;;;;;;;4950732;28;20185;-68
2023/08/08 00:54:28;;;;;;;10.02;2.58;;;;;;;;;;4950362;28;20608;-68
2023/08/08 00:56:53;;;;;;;6.32;3.03;;;;;;;;;;4949507;28;20203;-68
2023/08/08 00:59:18;;;;;;;8.23;2.72;;;;;;;;;;4948518;28;20236;-68
2023/08/08 01:01:44;;;;;;;13.43;3.60;;;;;;;;;;4948582;28;20270;-68
2023/08/08 01:04:09;;;;;;;14.27;2.70;;;;;;;;;;4947980;28;20209;-68
2023/08/08 01:06:34;;;;;;;11.63;3.15;;;;;;;;;;4949404;28;20323;-67
2023/08/08 01:09:02;;;;;;;10.55;2.75;;;;;;;;;;4949111;28;20187;-68
2023/08/08 01:11:29;;;;;;;7.07;2.75;;;;;;;;;;4948821;28;20199;-68
2023/08/08 01:13:54;;;;;;;9.60;3.28;;;;;;;;;;4947945;28;20904;-68
2023/08/08 01:16:20;;;;;;;10.82;2.40;;;;;;;;;;4947010;28;20180;-69
2023/08/08 01:18:47;;;;;;;13.95;3.67;;;;;;;;;;4949089;28;20197;-68
2023/08/08 01:21:14;;;;;;;10.90;2.60;;;;;;;;;;4950331;28;20242;-68
2023/08/08 01:23:44;;;;;;;14.00;4.05;;;;;;;;;;4951190;28;20971;-68
2023/08/08 01:26:10;;;;;;;12.23;3.28;;;;;;;;;;4949487;28;20215;-68
2023/08/08 01:28:35;;;;;;;12.45;3.75;;;;;;;;;;4949760;28;20188;-68
2023/08/08 01:31:00;;;;;;;6.85;2.88;;;;;;;;;;4948807;28;20180;-68
2023/08/08 01:33:26;;;;;;;12.68;3.70;;;;;;;;;;4950842;28;20267;-68
2023/08/08 01:35:58;;;;;;;8.23;3.53;;;;;;;;;;4947937;28;20810;-68
2023/08/08 01:38:36;;;;;;;8.60;3.42;;;;;;;;;;4944212;28;20633;-68
2023/08/08 01:41:02;;;;;;;10.40;3.63;;;;;;;;;;4946163;28;20674;-68
2023/08/08 01:43:28;;;;;;;12.48;3.88;;;;;;;;;;4946496;28;21129;-68
2023/08/08 01:45:53;;;;;;;13.02;3.72;;;;;;;;;;4949248;28;21003;-69
2023/08/08 01:48:19;;;;;;;13.10;3.72;;;;;;;;;;4952299;28;20180;-68
2023/08/08 01:50:44;;;;;;;9.43;3.53;;;;;;;;;;4957306;28;20659;-68
2023/08/08 01:53:09;;;;;;;14.43;4.20;;;;;;;;;;4956233;28;21079;-68
2023/08/08 01:55:34;;;;;;;12.05;3.08;;;;;;;;;;4956397;28;20211;-68
2023/08/08 01:58:00;;;;;;;14.65;3.75;;;;;;;;;;4951957;28;20302;-69
2023/08/08 02:00:25;;;;;;;10.80;3.45;;;;;;;;;;4949353;28;20188;-68
2023/08/08 02:02:50;;;;;;;8.55;3.17;;;;;;;;;;4951820;28;20188;-68
2023/08/08 02:05:16;;;;;;;11.43;4.28;;;;;;;;;;4956021;28;20284;-69
2023/08/08 02:07:41;;;;;;;9.35;3.83;;;;;;;;;;4947873;28;20299;-69
2023/08/08 02:10:06;;;;;;;14.60;3.90;;;;;;;;;;4942103;28;20577;-67
2023/08/08 02:12:32;;;;;;;10.57;3.95;;;;;;;;;;4941865;28;20776;-68
2023/08/08 02:14:57;;;;;;;14.45;4.13;;;;;;;;;;4953555;28;20212;-69
2023/08/08 02:17:22;;;;;;;13.82;4.13;;;;;;;;;;4949002;28;20218;-69
2023/08/08 02:19:47;;;;;;;8.77;3.75;;;;;;;;;;4953316;28;20197;-68
2023/08/08 02:22:13;;;;;;;6.57;3.50;;;;;;;;;;4950716;28;20232;-68
2023/08/08 02:24:38;;;;;;;12.45;4.90;;;;;;;;;;4949225;28;20212;-67
2023/08/08 02:27:04;;;;;;;12.20;4.85;;;;;;;;;;4946640;28;20247;-68
2023/08/08 02:29:29;;;;;;;16.58;4.15;;;;;;;;;;4947671;28;20193;-68
2023/08/08 02:31:54;;;;;;;10.02;4.15;;;;;;;;;;4946520;28;20220;-67
2023/08/08 02:34:19;;;;;;;10.25;3.67;;;;;;;;;;4960425;23;20320;-67
2023/08/08 02:36:45;;;;;;;12.00;3.92;;;;;;;;;;4967204;28;20685;-67
2023/08/08 02:39:10;;;;;;;9.82;3.35;;;;;;;;;;4966589;28;20686;-67
2023/08/08 02:41:35;;;;;;;8.20;3.78;;;;;;;;;;4967913;28;20200;-67
2023/08/08 02:44:00;;;;;;;8.35;3.50;;;;;;;;;;4965817;28;20269;-67
2023/08/08 02:46:26;;;;;;;9.93;4.63;;;;;;;;;;4957113;28;20212;-67
2023/08/08 02:48:51;;;;;;;10.43;3.30;;;;;;;;;;4956624;28;20243;-67
2023/08/08 02:51:16;;;;;;;6.10;3.30;;;;;;;;;;4949983;28;20208;-67
2023/08/08 02:53:41;;;;;;;10.63;4.10;;;;;;;;;;4957650;28;20270;-66
2023/08/08 02:56:07;;;;;;;12.27;3.78;;;;;;;;;;4956629;28;20330;-67
2023/08/08 02:58:32;;;;;;;11.68;5.13;;;;;;;;;;4955807;28;20188;-68
2023/08/08 03:00:57;;;;;;;9.77;3.55;;;;;;;;;;4957032;28;20211;-68
2023/08/08 03:03:23;;;;;;;9.30;4.22;;;;;;;;;;4956201;28;20207;-68
2023/08/08 03:05:49;;;;;;;8.30;4.10;;;;;;;;;;4956532;28;20216;-67
2023/08/08 03:08:14;;;;;;;14.48;4.43;;;;;;;;;;4956556;28;20212;-68
2023/08/08 03:10:40;;;;;;;9.52;4.60;;;;;;;;;;4951792;28;20271;-68
2023/08/08 03:13:06;;;;;;;8.18;4.22;;;;;;;;;;4956927;28;20180;-68
2023/08/08 03:15:31;;;;;;;11.40;4.53;;;;;;;;;;4955846;28;20204;-67
2023/08/08 03:17:56;;;;;;;12.65;4.82;;;;;;;;;;4953025;28;20958;-68
2023/08/08 03:20:21;;;;;;;14.23;5.53;;;;;;;;;;4954372;28;20192;-68
2023/08/08 03:22:47;;;;;;;11.43;3.95;;;;;;;;;;4957425;28;20227;-67
2023/08/08 03:25:12;;;;;;;7.75;4.38;;;;;;;;;;4956115;28;20588;-68
2023/08/08 03:27:37;;;;;;;10.10;3.85;;;;;;;;;;4954651;28;20224;-68
2023/08/08 03:30:02;;;;;;;6.35;3.63;;;;;;;;;;4956545;28;20274;-68
2023/08/08 03:32:28;;;;;;;7.35;3.88;;;;;;;;;;4958144;28;20293;-66
2023/08/08 03:34:53;;;;;;;9.18;4.25;;;;;;;;;;4954974;28;20227;-68
2023/08/08 03:37:18;;;;;;;7.88;3.65;;;;;;;;;;4954899;28;20188;-66
2023/08/08 03:39:43;;;;;;;9.05;3.33;;;;;;;;;;4958303;28;20272;-66
2023/08/08 03:42:09;;;;;;;8.52;3.72;;;;;;;;;;4960988;28;20192;-66
2023/08/08 03:44:34;;;;;;;7.65;3.90;;;;;;;;;;4960390;28;20212;-66
2023/08/08 03:46:59;;;;;;;8.32;4.22;;;;;;;;;;4957077;28;20270;-66
2023/08/08 03:49:25;;;;;;;8.57;3.75;;;;;;;;;;4959845;28;20184;-66
2023/08/08 03:51:50;;;;;;;11.98;4.18;;;;;;;;;;4956268;28;20971;-68
2023/08/08 03:54:16;;;;;;;13.55;4.03;;;;;;;;;;4960097;28;20930;-67
2023/08/08 03:56:42;;;;;;;6.63;4.20;;;;;;;;;;4960076;28;20639;-67
2023/08/08 03:59:07;;;;;;;8.32;3.25;;;;;;;;;;4959448;28;20210;-68
2023/08/08 04:01:32;;;;;;;6.30;3.92;;;;;;;;;;4960296;28;20200;-67
2023/08/08 04:03:58;;;;;;;6.63;4.10;;;;;;;;;;4958823;28;20195;-67
2023/08/08 04:06:23;;;;;;;7.22;4.00;;;;;;;;;;4957468;28;20216;-67
2023/08/08 04:08:48;;;;;;;10.40;4.35;;;;;;;;;;4958833;28;20224;-66
2023/08/08 04:11:13;;;;;;;9.32;4.13;;;;;;;;;;4958895;28;20238;-67
2023/08/08 04:13:38;;;;;;;7.35;3.72;;;;;;;;;;4959066;28;20193;-67
2023/08/08 04:16:04;;;;;;;7.93;3.50;;;;;;;;;;4958617;28;20287;-66
2023/08/08 04:18:29;;;;;;;11.15;5.45;;;;;;;;;;4959299;28;20192;-67
2023/08/08 04:20:54;;;;;;;6.78;3.70;;;;;;;;;;4958723;28;20789;-67
2023/08/08 04:23:19;;;;;;;13.82;3.55;;;;;;;;;;4960964;28;20184;-68
2023/08/08 04:25:45;;;;;;;5.35;3.42;;;;;;;;;;4959343;28;20930;-67
2023/08/08 04:28:10;;;;;;;6.97;3.40;;;;;;;;;;4958089;28;20863;-67
2023/08/08 04:30:35;;;;;;;6.15;3.72;;;;;;;;;;4958252;28;20184;-67
2023/08/08 04:33:00;;;;;;;7.38;2.55;;;;;;;;;;4958802;28;20275;-67
2023/08/08 04:35:26;;;;;;;4.70;2.67;;;;;;;;;;4958290;28;20227;-65
2023/08/08 04:37:51;;;;;;;6.50;2.70;;;;;;;;;;4959236;28;20611;-66
2023/08/08 04:40:16;;;;;;;4.72;2.25;;;;;;;;;;4958989;28;20324;-66
2023/08/08 04:42:42;;;;;;;4.45;2.40;;;;;;;;;;4960219;28;20192;-65
2023/08/08 04:45:08;;;;;;;5.07;2.33;;;;;;;;;;4957239;28;21933;-66
2023/08/08 04:47:33;;;;;;;5.10;1.58;;;;;;;;;;4957438;28;20360;-66
2023/08/08 04:49:58;;;;;;;5.63;2.10;;;;;;;;;;4957194;28;20267;-67
2023/08/08 04:52:23;;;;;;;6.40;2.03;;;;;;;;;;4954864;28;20609;-66
2023/08/08 04:54:49;;;;;;;1.65;1.27;;;;;;;;;;4959371;28;20360;-66
2023/08/08 04:57:14;;;;;;;4.38;1.63;;;;;;;;;;4956728;28;20191;-66
2023/08/08 04:59:39;;;;;;;2.13;1.05;;;;;;;;;;4958861;28;20188;-66
2023/08/08 05:02:04;;;;;;;2.58;1.20;;;;;;;;;;4957861;28;20222;-66
2023/08/08 05:04:30;;;;;;;6.55;1.42;;;;;;;;;;4958378;28;20246;-66
2023/08/08 05:06:55;;;;;;;3.40;1.30;;;;;;;;;;4957347;28;20596;-67
2023/08/08 05:09:20;;;;;;;1.73;1.00;;;;;;;;;;4958606;28;20268;-66
2023/08/08 05:11:46;;;;;;;2.35;1.08;;;;;;;;;;4958957;28;20312;-66
2023/08/08 05:14:11;;;;;;;4.50;1.23;;;;;;;;;;4958705;28;20267;-66
2023/08/08 05:16:36;;;;;;;1.75;1.10;;;;;;;;;;4959594;28;20635;-66
2023/08/08 05:19:01;;;;;;;3.80;1.10;;;;;;;;;;4957829;28;20208;-67
2023/08/08 05:21:27;;;;;;;2.80;1.00;;;;;;;;;;4954715;28;20195;-66
2023/08/08 05:23:52;;;;;;;2.25;1.33;;;;;;;;;;4958908;28;20216;-67
2023/08/08 05:26:17;;;;;;;3.33;1.08;;;;;;;;;;4959359;28;20484;-66
2023/08/08 05:28:42;;;;;;;3.50;1.10;;;;;;;;;;4957612;28;20188;-67
2023/08/08 05:31:08;;;;;;;1.45;0.88;;;;;;;;;;4957715;28;20188;-67
2023/08/08 05:33:33;;;;;;;3.40;1.20;;;;;;;;;;4959131;28;20184;-66
2023/08/08 05:35:58;;;;;;;1.00;0.82;;;;;;;;;;4955476;28;20254;-67
2023/08/08 05:38:23;;;;;;;4.78;1.08;;;;;;;;;;4956466;28;20203;-66
2023/08/08 05:40:49;;;;;;;2.05;1.30;;;;;;;;;;4954302;28;20775;-67
2023/08/08 05:43:18;;;;;;;6.30;1.20;;;;;;;;;;4958275;28;20271;-67
2023/08/08 05:45:43;;;;;;;1.88;0.77;;;;;;;;;;4955143;28;20220;-67
2023/08/08 05:48:11;;;;;;;3.15;0.80;;;;;;;;;;4955699;28;20187;-68
2023/08/08 05:50:37;;;;;;;1.35;0.95;;;;;;;;;;4957418;28;20238;-67
2023/08/08 05:53:02;;;;;;;3.05;1.30;;;;;;;;;;4958597;28;20246;-67
2023/08/08 05:55:27;;;;;;;5.00;1.20;;;;;;;;;;4953121;28;20653;-67
2023/08/08 05:57:53;;;;;;;2.72;1.88;;;;;;;;;;4955835;28;20184;-67
2023/08/08 06:00:18;;;;;;;2.83;1.30;;;;;;;;;;4950316;28;20279;-67
2023/08/08 06:02:43;;;;;;;2.03;0.88;;;;;;;;;;4955935;28;20196;-67
2023/08/08 06:05:10;;;;;;;3.30;0.75;;;;;;;;;;4952921;28;20212;-67
2023/08/08 06:07:35;;;;;;;6.85;1.10;;;;;;;;;;4954991;28;20216;-67
2023/08/08 06:10:01;;;;;;;2.42;0.80;;;;;;;;;;4955725;28;20195;-67
2023/08/08 06:12:26;;;;;;;3.33;1.10;;;;;;;;;;4954382;28;20180;-67
2023/08/08 06:14:51;;;;;;;4.10;1.30;;;;;;;;;;4957391;28;20255;-67
2023/08/08 06:17:16;;;;;;;2.67;0.90;;;;;;;;;;4957274;28;20745;-68
2023/08/08 06:19:41;;;;;;;4.22;1.10;;;;;;;;;;4957152;28;20638;-67
2023/08/08 06:22:07;;;;;;;4.25;1.17;;;;;;;;;;4952574;28;22521;-67
2023/08/08 06:24:32;;;;;;;2.00;1.00;;;;;;;;;;4956421;28;20683;-67
2023/08/08 06:26:57;;;;;;;2.80;1.05;;;;;;;;;;4953910;28;20219;-68
2023/08/08 06:29:23;;;;;;;3.90;0.90;;;;;;;;;;4957152;28;20834;-67
2023/08/08 06:31:48;;;;;;;1.88;0.93;;;;;;;;;;4955330;28;20191;-67
2023/08/08 06:34:13;;;;;;;6.40;1.20;;;;;;;;;;4950897;28;20306;-67
2023/08/08 06:36:38;;;;;;;2.13;0.85;;;;;;;;;;4951071;28;20238;-66
2023/08/08 06:39:04;;;;;;;1.77;0.60;;;;;;;;;;4954292;28;20231;-67
2023/08/08 06:41:29;;;;;;;1.67;0.75;;;;;;;;;;4953686;28;20275;-67
2023/08/08 06:43:54;;;;;;;4.40;0.82;;;;;;;;;;4955687;28;20674;-67
2023/08/08 06:46:20;;;;;;;3.35;1.00;;;;;;;;;;4955176;28;21021;-67
2023/08/08 06:48:46;;;;;;;1.55;1.00;;;;;;;;;;4953927;28;20549;-67
2023/08/08 06:51:12;;;;;;;1.33;0.60;;;;;;;;;;4954171;28;20180;-67
2023/08/08 06:53:37;;;;;;;4.00;1.08;;;;;;;;;;4957926;28;20192;-67
2023/08/08 06:56:02;;;;;;;6.35;1.35;;;;;;;;;;4957099;28;20209;-67
2023/08/08 06:58:27;;;;;;;4.10;0.90;;;;;;;;;;4954301;28;20187;-68
2023/08/08 07:00:53;;;;;;;2.75;0.63;;;;;;;;;;4956376;28;20312;-67
2023/08/08 07:03:18;;;;;;;1.23;0.60;;;;;;;;;;4945828;28;20228;-66
2023/08/08 07:05:43;;;;;;;2.53;0.57;;;;;;;;;;4957434;28;20295;-66
2023/08/08 07:08:08;;;;;;;3.47;0.60;;;;;;;;;;4956335;28;20267;-67
2023/08/08 07:10:35;;;;;;;4.28;0.55;;;;;;;;;;4956872;28;20224;-67
2023/08/08 07:13:00;;;;;;;2.67;0.55;;;;;;;;;;4956151;28;20184;-67
2023/08/08 07:15:26;;;;;;;2.10;0.45;;;;;;;;;;4960157;28;20212;-67
2023/08/08 07:17:51;;;;;;;1.55;0.40;;;;;;;;;;4959589;28;20708;-67
2023/08/08 07:20:17;;;;;;;1.45;0.50;;;;;;;;;;4960034;28;20681;-67
2023/08/08 07:22:43;;;;;;;3.92;0.50;;;;;;;;;;4954088;28;20203;-68
2023/08/08 07:25:08;;;;;;;1.38;0.40;;;;;;;;;;4958752;28;20204;-67
2023/08/08 07:27:33;;;;;;;4.10;0.40;;;;;;;;;;4961286;28;20511;-67
2023/08/08 07:30:00;;;;;;;1.65;0.40;;;;;;;;;;4960327;28;20184;-67
2023/08/08 07:32:26;;;;;;;2.75;0.60;;;;;;;;;;4961391;28;20181;-67
2023/08/08 07:34:51;;;;;;;3.10;0.82;;;;;;;;;;4957600;28;20231;-67
2023/08/08 07:37:16;;;;;;;1.55;0.68;;;;;;;;;;4961678;28;20658;-67
2023/08/08 07:39:41;;;;;;;1.45;0.57;;;;;;;;;;4958235;28;20194;-66
2023/08/08 07:42:07;;;;;;;4.13;0.70;;;;;;;;;;4958377;28;20185;-67
2023/08/08 07:44:34;;;;;;;1.70;0.60;;;;;;;;;;4955580;28;20215;-66
2023/08/08 07:46:59;;;;;;;2.33;0.65;;;;;;;;;;4959472;28;20211;-66
2023/08/08 07:49:24;;;;;;;0.80;0.30;;;;;;;;;;4960302;28;20236;-67
2023/08/08 07:51:50;;;;;;;2.17;0.85;;;;;;;;;;4956654;28;20188;-67
2023/08/08 07:54:15;;;;;;;2.38;0.50;;;;;;;;;;4941803;28;20207;-66
2023/08/08 07:56:42;;;;;;;1.70;0.47;;;;;;;;;;4934887;28;21995;-66
2023/08/08 07:59:09;;;;;;;0.38;0.13;;;;;;;;;;4940423;28;21368;-67
2023/08/08 08:01:34;;;;;;;1.45;0.50;;;;;;;;;;4937549;28;20195;-67
2023/08/08 08:03:59;;;;;;;2.08;0.40;;;;;;;;;;4941551;28;20192;-67
2023/08/08 08:06:24;;;;;;;1.15;0.40;;;;;;;;;;4940812;28;20212;-67
2023/08/08 08:08:49;;;;;;;1.08;0.30;;;;;;;;;;4939368;28;20612;-66
2023/08/08 08:11:16;;;;;;;3.67;0.52;;;;;;;;;;4939143;28;20176;-67
2023/08/08 08:13:41;;;;;;;1.30;0.45;;;;;;;;;;4944657;28;21040;-67
2023/08/08 08:16:07;;;;;;;1.30;0.38;;;;;;;;;;4939001;28;20822;-67
2023/08/08 08:18:33;;;;;;;1.13;0.50;;;;;;;;;;4939627;28;20200;-67
2023/08/08 08:20:58;;;;;;;1.73;0.50;;;;;;;;;;4938615;28;20200;-68
2023/08/08 08:23:23;;;;;;;1.70;0.57;;;;;;;;;;4938581;28;20185;-67
2023/08/08 08:25:50;;;;;;;0.88;0.30;;;;;;;;;;4936832;28;20208;-67
2023/08/08 08:28:15;;;;;;;0.77;0.35;;;;;;;;;;4937537;28;20203;-67
2023/08/08 08:30:40;;;;;;;2.55;0.47;;;;;;;;;;4940854;28;20180;-68
2023/08/08 08:33:07;;;;;;;1.55;0.30;;;;;;;;;;4942280;28;20185;-67
2023/08/08 08:35:33;;;;;;;0.43;0.40;;;;;;;;;;4954280;23;20247;-69
2023/08/08 08:37:58;;;;;;;0.57;0.28;;;;;;;;;;4955403;28;20188;-68
2023/08/08 08:40:23;;;;;;;1.23;0.75;;;;;;;;;;4954313;28;20421;-68
2023/08/08 08:42:49;;;;;;;0.20;0.20;;;;;;;;;;4955910;28;20744;-69
2023/08/08 08:45:14;;;;;;;2.80;0.40;;;;;;;;;;4948663;28;20339;-68
2023/08/08 08:47:41;;;;;;;1.17;0.57;;;;;;;;;;4937755;28;20227;-68
2023/08/08 08:50:07;;;;;;;0.75;0.38;;;;;;;;;;4934542;28;20188;-68
2023/08/08 08:52:32;;;;;;;0.57;0.40;;;;;;;;;;4942961;28;20785;-69
2023/08/08 08:54:58;;;;;;;1.00;0.22;;;;;;;;;;4935496;28;20965;-68
2023/08/08 08:57:23;;;;;;;1.83;0.95;;;;;;;;;;4938650;28;20686;-69
2023/08/08 08:59:49;;;;;;;0.95;0.50;;;;;;;;;;4941192;28;20235;-69
2023/08/08 09:02:14;;;;;;;1.73;0.35;;;;;;;;;;4938638;28;21959;-68
2023/08/08 09:04:39;;;;;;;0.73;0.38;;;;;;;;;;4940955;28;20287;-70
2023/08/08 09:07:06;;;;;;;0.82;0.40;;;;;;;;;;4938180;28;20216;-69
2023/08/08 09:09:32;;;;;;;1.85;0.43;;;;;;;;;;4936653;28;20181;-70
2023/08/08 09:11:57;;;;;;;0.85;0.40;;;;;;;;;;4937473;28;20192;-68
2023/08/08 09:14:23;;;;;;;0.73;0.30;;;;;;;;;;4937427;28;20976;-68
2023/08/08 09:16:49;;;;;;;1.73;0.25;;;;;;;;;;4940271;28;20214;-67
2023/08/08 09:19:15;;;;;;;1.50;0.40;;;;;;;;;;4938833;28;20181;-67
2023/08/08 09:21:40;;;;;;;2.58;0.45;;;;;;;;;;4938078;28;20203;-70
2023/08/08 09:24:06;;;;;;;1.45;0.55;;;;;;;;;;4937074;28;20571;-68
2023/08/08 09:26:32;;;;;;;1.15;0.55;;;;;;;;;;4937203;28;20208;-68
2023/08/08 09:28:57;;;;;;;1.20;0.43;;;;;;;;;;4936881;28;20184;-69
2023/08/08 09:31:24;;;;;;;3.50;1.00;;;;;;;;;;4940148;28;20820;-69
2023/08/08 09:33:51;;;;;;;1.92;0.30;;;;;;;;;;4935831;28;20267;-68
2023/08/08 09:36:16;;;;;;;1.20;0.50;;;;;;;;;;4937873;28;20227;-69
2023/08/08 09:38:42;;;;;;;0.80;0.35;;;;;;;;;;4937604;28;20216;-69
2023/08/08 09:41:07;;;;;;;1.00;0.55;;;;;;;;;;4938078;28;20564;-69
2023/08/08 09:43:32;;;;;;;1.25;0.50;;;;;;;;;;4939443;28;20189;-69
2023/08/08 09:45:58;;;;;;;0.38;0.20;;;;;;;;;;4940968;28;20220;-68
2023/08/08 09:48:29;;;;;;;2.42;0.57;;;;;;;;;;4937364;28;20183;-69
2023/08/08 09:50:54;;;;;;;1.15;0.40;;;;;;;;;;4938031;28;21483;-70
2023/08/08 09:53:20;;;;;;;0.70;0.60;;;;;;;;;;4937109;28;20338;-68
2023/08/08 09:55:45;;;;;;;0.85;0.50;;;;;;;;;;4940188;28;20204;-69
2023/08/08 09:58:11;;;;;;;0.70;0.28;;;;;;;;;;4940599;28;20670;-70
2023/08/08 10:00:37;;;;;;;1.05;0.50;;;;;;;;;;4940688;28;20647;-71
2023/08/08 10:03:02;;;;;;;1.85;0.70;;;;;;;;;;4939135;28;20247;-68
2023/08/08 10:05:28;;;;;;;1.80;0.30;;;;;;;;;;4938020;28;20802;-69
2023/08/08 10:07:53;;;;;;;2.15;0.50;;;;;;;;;;4943077;28;20589;-69
2023/08/08 10:10:19;;;;;;;0.65;0.40;;;;;;;;;;4959838;28;20271;-70
2023/08/08 10:12:44;;;;;;;1.73;0.60;;;;;;;;;;4963950;28;20176;-69
2023/08/08 10:15:09;;;;;;;2.25;1.15;;;;;;;;;;4966501;28;20283;-69
2023/08/08 10:17:36;;;;;;;1.77;0.82;;;;;;;;;;4966014;28;20225;-69
2023/08/08 10:20:09;;;;;;;1.13;0.45;;;;;;;;;;4966056;28;20977;-69
2023/08/08 10:22:35;;;;;;;3.45;0.60;;;;;;;;;;4964951;28;20632;-70
2023/08/08 10:25:03;;;;;;;0.55;0.40;;;;;;;;;;4964086;28;20208;-69
2023/08/08 10:27:31;;;;;;;2.45;0.65;;;;;;;;;;4964473;28;20270;-72
2023/08/08 10:30:00;;;;;;;2.17;0.80;;;;;;;;;;4964326;28;20303;-69
2023/08/08 10:32:26;;;;;;;1.58;0.60;;;;;;;;;;4964416;28;20192;-69
2023/08/08 10:34:54;;;;;;;1.05;0.50;;;;;;;;;;4962259;28;20211;-69
2023/08/08 10:37:20;;;;;;;0.85;0.80;;;;;;;;;;4962676;28;20215;-71
2023/08/08 10:39:53;;;;;;;2.58;0.60;;;;;;;;;;4960233;28;20188;-69
2023/08/08 10:42:19;;;;;;;2.42;0.50;;;;;;;;;;4946296;28;20264;-69
2023/08/08 10:44:52;;;;;;;1.33;0.60;;;;;;;;;;4949805;28;20251;-69
2023/08/08 10:47:20;;;;;;;0.75;0.20;;;;;;;;;;4937678;28;20216;-69
2023/08/08 10:49:55;;;;;;;0.57;0.40;;;;;;;;;;4942170;28;20647;-69
2023/08/08 10:52:21;;;;;;;0.95;0.52;;;;;;;;;;4941947;28;20183;-70
2023/08/08 10:54:51;;;;;;;1.17;0.50;;;;;;;;;;4944050;28;20200;-68
2023/08/08 10:57:18;;;;;;;1.65;0.70;;;;;;;;;;4941708;28;20336;-68
2023/08/08 10:59:44;;;;;;;1.98;0.70;;;;;;;;;;4941624;28;20866;-69
2023/08/08 11:02:09;;;;;;;1.75;0.75;;;;;;;;;;4940379;28;20192;-69
2023/08/08 11:04:35;;;;;;;1.98;0.55;;;;;;;;;;4958032;28;20191;-71
2023/08/08 11:07:01;;;;;;;0.52;0.52;;;;;;;;;;4938235;28;20866;-70
2023/08/08 11:09:26;;;;;;;0.63;0.57;;;;;;;;;;4935269;28;21030;-69
2023/08/08 11:11:52;;;;;;;0.80;0.40;;;;;;;;;;4935449;28;20181;-69
2023/08/08 11:14:18;;;;;;;1.33;0.65;;;;;;;;;;4942855;28;20192;-68
2023/08/08 11:16:44;;;;;;;0.73;0.30;;;;;;;;;;4938945;28;20216;-70
2023/08/08 11:19:10;;;;;;;2.83;0.43;;;;;;;;;;4939009;28;20242;-69
2023/08/08 11:21:36;;;;;;;2.47;0.57;;;;;;;;;;4935356;28;20319;-69
2023/08/08 11:24:02;;;;;;;1.63;0.70;;;;;;;;;;4938282;28;22009;-68
2023/08/08 11:26:27;;;;;;;2.38;0.68;;;;;;;;;;4939306;28;20270;-69
2023/08/08 11:28:53;;;;;;;1.20;0.45;;;;;;;;;;4944522;28;20191;-68
2023/08/08 11:31:21;;;;;;;1.05;0.50;;;;;;;;;;4938234;28;20180;-68
2023/08/08 11:33:47;;;;;;;1.77;0.70;;;;;;;;;;4938029;28;20312;-69
2023/08/08 11:36:13;;;;;;;1.00;0.60;;;;;;;;;;4939306;28;20230;-69
2023/08/08 11:38:39;;;;;;;3.70;0.80;;;;;;;;;;4939136;28;20677;-70
2023/08/08 11:41:05;;;;;;;1.55;0.57;;;;;;;;;;4939803;28;20674;-68
2023/08/08 11:43:30;;;;;;;1.50;0.63;;;;;;;;;;4940545;28;20212;-68
2023/08/08 11:45:56;;;;;;;1.63;0.50;;;;;;;;;;4939459;28;20626;-68
2023/08/08 11:48:21;;;;;;;2.60;0.90;;;;;;;;;;4938800;28;20679;-68
2023/08/08 11:50:46;;;;;;;1.30;0.70;;;;;;;;;;4938511;28;20185;-66
2023/08/08 11:53:12;;;;;;;4.07;0.77;;;;;;;;;;4938507;28;20184;-67
2023/08/08 11:55:37;;;;;;;1.30;0.65;;;;;;;;;;4938925;28;20257;-68
2023/08/08 11:58:02;;;;;;;1.45;0.70;;;;;;;;;;4936981;28;20606;-69
2023/08/08 12:00:31;;;;;;;1.80;0.52;;;;;;;;;;4938836;28;20217;-70
2023/08/08 12:02:57;;;;;;;1.27;0.50;;;;;;;;;;4942448;28;20931;-68
2023/08/08 12:05:22;;;;;;;1.35;0.57;;;;;;;;;;4953202;28;20906;-70
2023/08/08 12:07:48;;;;;;;0.70;0.43;;;;;;;;;;4938712;28;20196;-70
2023/08/08 12:10:18;;;;;;;3.45;0.50;;;;;;;;;;4938356;28;20274;-69
2023/08/08 12:12:44;;;;;;;1.10;0.40;;;;;;;;;;4939695;28;20184;-69
2023/08/08 12:15:09;;;;;;;1.42;0.40;;;;;;;;;;4942323;28;20287;-68
2023/08/08 12:17:35;;;;;;;3.15;0.43;;;;;;;;;;4939399;28;21213;-69
2023/08/08 12:20:03;;;;;;;0.57;0.50;;;;;;;;;;4938281;28;20310;-70
2023/08/08 12:22:28;;;;;;;0.82;0.50;;;;;;;;;;4948627;28;20766;-69
2023/08/08 12:24:54;;;;;;;0.85;0.30;;;;;;;;;;4961202;28;20204;-73
2023/08/08 12:27:19;;;;;;;0.57;0.30;;;;;;;;;;4955034;28;20209;-69
2023/08/08 12:29:44;;;;;;;1.50;0.50;;;;;;;;;;4952719;28;20275;-69
2023/08/08 12:32:09;;;;;;;0.82;0.30;;;;;;;;;;4936128;28;20531;-69
2023/08/08 12:34:35;;;;;;;1.88;0.40;;;;;;;;;;4937985;28;20188;-69
2023/08/08 12:37:01;;;;;;;1.00;0.40;;;;;;;;;;4934120;28;20789;-71
2023/08/08 12:39:26;;;;;;;2.75;0.65;;;;;;;;;;4939681;28;20197;-70
2023/08/08 12:41:51;;;;;;;1.20;0.32;;;;;;;;;;4938532;28;20961;-68
2023/08/08 12:44:16;;;;;;;1.23;0.50;;;;;;;;;;4939456;28;20196;-68
2023/08/08 12:46:42;;;;;;;2.47;0.70;;;;;;;;;;4938931;28;20244;-68
2023/08/08 12:49:08;;;;;;;1.80;0.60;;;;;;;;;;4939518;28;20251;-69
2023/08/08 12:51:33;;;;;;;2.50;0.60;;;;;;;;;;4940665;28;20192;-68
2023/08/08 12:53:58;;;;;;;4.63;0.85;;;;;;;;;;4937769;28;20959;-69
2023/08/08 12:56:23;;;;;;;1.67;0.40;;;;;;;;;;4936280;28;20209;-68
2023/08/08 12:58:50;;;;;;;0.73;0.50;;;;;;;;;;4939056;28;20184;-68
2023/08/08 13:01:15;;;;;;;2.95;0.88;;;;;;;;;;4940507;28;20279;-70
2023/08/08 13:03:40;;;;;;;1.85;0.68;;;;;;;;;;4939435;28;20654;-70
2023/08/08 13:06:05;;;;;;;1.27;0.50;;;;;;;;;;4938355;28;20215;-68
2023/08/08 13:08:32;;;;;;;0.77;0.40;;;;;;;;;;4948512;28;20226;-70
2023/08/08 13:10:57;;;;;;;2.65;0.70;;;;;;;;;;4956290;28;20275;-70
2023/08/08 13:13:25;;;;;;;0.85;0.52;;;;;;;;;;4957481;28;20554;-69
2023/08/08 13:15:50;;;;;;;1.08;0.45;;;;;;;;;;4956273;28;20225;-69
2023/08/08 13:18:15;;;;;;;3.33;0.50;;;;;;;;;;4958737;28;20671;-69
2023/08/08 13:20:40;;;;;;;0.93;0.50;;;;;;;;;;4959193;28;20320;-71
2023/08/08 13:23:05;;;;;;;3.08;0.70;;;;;;;;;;4953189;28;20192;-69
2023/08/08 13:25:34;;;;;;;1.23;0.40;;;;;;;;;;4938888;28;20230;-68
2023/08/08 13:27:59;;;;;;;1.08;0.68;;;;;;;;;;4936990;28;21117;-69
2023/08/08 13:30:24;;;;;;;0.93;0.50;;;;;;;;;;4938085;28;21634;-68
2023/08/08 13:32:49;;;;;;;1.25;0.50;;;;;;;;;;4935540;28;20709;-71
2023/08/08 13:35:14;;;;;;;1.88;0.82;;;;;;;;;;4935485;28;20216;-69
2023/08/08 13:37:40;;;;;;;1.40;0.85;;;;;;;;;;4938840;28;20195;-70
2023/08/08 13:40:05;;;;;;;1.27;0.85;;;;;;;;;;4938003;28;20857;-70
2023/08/08 13:42:30;;;;;;;1.58;0.60;;;;;;;;;;4933864;28;20188;-69
2023/08/08 13:44:56;;;;;;;1.70;0.40;;;;;;;;;;4941168;28;20640;-70
2023/08/08 13:47:21;;;;;;;2.47;0.47;;;;;;;;;;4934939;28;20461;-69
2023/08/08 13:49:46;;;;;;;3.47;0.60;;;;;;;;;;4936818;28;20189;-69
2023/08/08 13:52:11;;;;;;;1.25;0.50;;;;;;;;;;4936278;28;20322;-70
2023/08/08 13:54:37;;;;;;;1.98;0.80;;;;;;;;;;4936873;28;20267;-69
2023/08/08 13:57:02;;;;;;;1.92;0.90;;;;;;;;;;4935805;28;20189;-70
2023/08/08 13:59:27;;;;;;;0.60;0.52;;;;;;;;;;4940138;28;20572;-69
2023/08/08 14:01:52;;;;;;;0.75;0.50;;;;;;;;;;4937593;28;20194;-70
2023/08/08 14:04:18;;;;;;;1.42;0.82;;;;;;;;;;4940549;28;20192;-70
2023/08/08 14:06:43;;;;;;;2.03;0.52;;;;;;;;;;4939026;28;20220;-69
2023/08/08 14:09:09;;;;;;;1.23;0.75;;;;;;;;;;4934851;28;20219;-69
2023/08/08 14:11:34;;;;;;;1.47;0.50;;;;;;;;;;4935779;28;20185;-70
2023/08/08 14:14:00;;;;;;;1.75;0.50;;;;;;;;;;4940989;28;20437;-68
2023/08/08 14:16:25;;;;;;;2.78;0.80;;;;;;;;;;4923721;28;20283;-69
2023/08/08 14:18:50;;;;;;;1.98;0.85;;;;;;;;;;4938062;28;20293;-69
2023/08/08 14:21:15;;;;;;;2.22;0.50;;;;;;;;;;4934553;28;20193;-71
2023/08/08 14:23:41;;;;;;;3.03;0.90;;;;;;;;;;4935108;28;20196;-72
2023/08/08 14:26:06;;;;;;;1.48;0.68;;;;;;;;;;4936013;28;20208;-70
2023/08/08 14:28:31;;;;;;;4.53;0.80;;;;;;;;;;4937897;28;20191;-72
2023/08/08 14:30:56;;;;;;;2.70;1.20;;;;;;;;;;4935109;28;20184;-69